Rachel, Nevada Weather observations

Data are for observation ending at time listed.
 Day   Time    Ave.   Ave.  Ave.  Vector   Max.   Stn.    Total    Solar   Ave.  
  of    of     Air    Rel.  Wind   Wind    Wind   Baro.  Precip.   Rad.    Soil  
Year   Day     Temp.  Hum.  Speed  Dir.    Gust   Pres.                    Temp. 
2014   (PST)    F      %     mph   deg.    mph     mb.     in.     W/m2     F   
------------------------------------------------------------------------------
 324    9:50   40.7    25    1.7   278      3.4   851.6    0.00     362    38.0
 324   10:00   42.1    25    2.6   270      4.5   851.8    0.00     374    38.3
 324   10:10   42.4    26    2.3   269      4.5   852.0    0.00     385    38.6
 324   10:20   44.7    23    0.6   249      2.7   852.2    0.00     392    38.9
 324   10:30   46.5    22    1.0    55      4.2   852.1    0.00     398    39.3
 324   10:40   46.3    22    1.8    86      4.5   852.1    0.00     407    39.6
 324   10:50   48.3    20    1.7    82      4.5   852.2    0.00     415    39.9
 324   11:00   48.7    19    1.4    82      4.2   851.8    0.00     422    40.3
 324   11:10   48.9    19    2.2    38      4.5   851.8    0.00     415    40.5
 324   11:20   49.6    19    2.5    48      5.3   851.6    0.00     397    40.7
 324   11:30   50.2    18    2.9    13      5.8   851.7    0.00     420    41.0
 324   11:40   51.0    18    2.0    38      6.9   851.5    0.00     397    41.2
 324   11:50   51.4    18    2.9    28      5.0   851.4    0.00     393    41.5
 324   12:00   52.7    17    2.5    37      5.1   851.4    0.00     413    41.8
 324   12:10   52.7    17    3.0    69      5.0   851.5    0.00     315    42.0
 324   12:20   52.7    17    2.0    50      4.9   851.5    0.00     284    42.3
 324   12:30   53.8    17    2.1    27      4.5   851.4    0.00     316    42.5
 324   12:40   54.0    17    2.0    34      4.4   851.2    0.00     260    42.8
 324   12:50   54.5    16    1.6    91      4.8   851.1    0.00     312    43.0
 324   13:00   55.5    16    2.4    68      4.4   851.0    0.00     259    43.3
 324   13:10   55.9    16    0.3    28      2.4   851.1    0.00     225    43.6
 324   13:20   56.8    16    0.7   303      3.7   850.9    0.00     251    43.8
 324   13:30   55.6    16    1.9   318      3.7   850.8    0.00     189    44.1
 324   13:40   55.3    17    1.7   328      3.7   850.6    0.00     141    44.1
 324   13:50   55.5    17    0.7     7      2.7   850.4    0.00     172    44.5
 324   14:00   56.3    16    0.4   321      1.2   850.3    0.00     203    44.6
 324   14:10   56.7    16    1.5   306      3.7   850.2    0.00     170    44.9
 324   14:20   56.9    17    5.3   184     11.3   850.1    0.00     163    45.2
 324   14:30   56.6    18    9.8   166     13.1   849.9    0.00     159    45.5
 324   14:40   56.4    18    9.9   159     13.6   849.7    0.00     114    45.8
 324   14:50   56.1    19   10.5   167     13.4   849.5    0.00      99    46.1
 324   15:00   55.9    19   10.5   168     13.5   849.4    0.00      96    46.3
 324   15:10   55.8    19   10.8   169     14.3   849.3    0.00     106    46.4
 324   15:20   55.7    19   12.2   169     15.8   849.3    0.00     101    46.5
 324   15:30   55.4    19   11.8   166     14.7   849.1    0.00      72    46.7
 324   15:40   54.8    19   11.7   162     14.6   849.0    0.00      49    46.7
 324   15:50   54.2    20   10.8   161     14.3   848.9    0.00      36    46.7
 324   16:00   53.7    20   10.9   165     14.1   848.9    0.00      32    46.6
 324   16:10   53.0    20   10.7   168     13.2   848.9    0.00      21    46.5
 324   16:20   52.3    20    9.9   166     13.3   848.8    0.00      11    46.4
 324   16:30   51.6    21    9.9   171     12.1   848.7    0.00       5    46.3
 324   16:40   50.6    21    7.9   183     10.5   848.6    0.00       3    46.1
 324   16:50   49.4    22    6.2   184      9.6   848.5    0.00       1    46.0
 324   17:00   49.9    22    8.4   174     11.2   848.4    0.00       0    45.8
 324   17:10   50.2    21   11.0   158     14.9   848.3    0.00       0    45.8
 324   17:20   50.2    21   11.1   158     15.6   848.2    0.00       0    45.8
 324   17:30   50.0    21   11.5   167     16.4   848.4    0.00       0    45.8
 324   17:40   50.0    21   10.3   171     14.8   848.4    0.00       0    45.6
 324   17:50   49.6    21   11.0   163     14.0   848.3    0.00       0    45.6
 324   18:00   49.0    22    7.3   204     12.2   848.4    0.00       0    45.6
 324   18:10   48.2    22    5.5   175      9.6   848.3    0.00       0    45.5
 324   18:20   47.9    22    6.5   176      9.9   848.2    0.00       0    45.3
 324   18:30   47.5    23   11.1   170     14.2   848.1    0.00       0    45.2
 324   18:40   47.2    23   13.1   177     14.6   848.1    0.00       0    45.1
 324   18:50   46.6    23   12.8   175     14.5   848.1    0.00       0    45.0
 324   19:00   46.6    23    7.7   196     11.9   848.1    0.00       0    44.9
 324   19:10   46.9    23    5.5   214     10.0   848.1    0.00       0    44.9
 324   19:20   48.3    23    4.8   216     10.9   848.1    0.00       0    44.8
 324   19:30   48.0    23    1.6   238      3.4   848.1    0.00       0    44.8
 324   19:40   47.4    24    0.7   226      2.9   848.0    0.00       0    44.7
 324   19:50   46.6    25    3.1   153      5.3   847.9    0.00       0    44.5
 324   20:00   44.6    26    2.5    51      6.0   847.8    0.00       0    44.3
 324   20:10   44.8    27    1.6   352      4.1   847.8    0.00       0    44.3
 324   20:20   43.4    27    2.3    42      5.6   847.7    0.00       0    44.0
 324   20:30   42.2    28    2.0    38      3.9   847.7    0.00       0    43.9
 324   20:40   44.5    27    2.7   226      8.5   847.7    0.00       0    43.8
 324   20:50   44.5    27    5.8   189      7.5   847.7    0.00       0    43.8
 324   21:00   45.1    27    5.9   188      7.6   847.7    0.00       0    43.7
 324   21:10   44.6    27    4.7   173      6.6   847.4    0.00       0    43.6
 324   21:20   44.7    27    4.1   178      5.2   847.3    0.00       0    43.5
 324   21:30   42.6    29    6.7   129     10.0   847.3    0.00       0    43.4
 324   21:40   42.7    29    6.2   102     10.7   847.2    0.00       0    43.3
 324   21:50   41.3    30    3.6    92      4.8   847.2    0.00       0    43.3
 324   22:00   40.5    30    2.9    98      5.1   847.0    0.00       0    43.2
 324   22:10   40.3    30    3.4   107      6.2   846.9    0.00       0    43.1
 324   22:20   40.2    30    5.3     3      8.9   847.0    0.00       0    43.0
 324   22:30   38.0    32    4.1   340      6.2   847.1    0.00       0    42.9
 324   22:40   38.1    32    3.2   253      6.2   847.1    0.00       0    42.6
 324   22:50   40.1    30    3.3   272      7.9   846.9    0.00       0    42.6
 324   23:00   43.7    28    2.1    25      5.2   846.9    0.00       0    42.8
 324   23:10   42.9    29    6.3   228     11.2   847.1    0.00       0    42.9
 324   23:20   41.2    31    4.8   239      7.2   847.1    0.00       0    42.8
 324   23:30   40.4    31    2.5   222      4.7   847.2    0.00       0    42.8
 324   23:40   39.5    32    3.4   228      5.3   847.2    0.00       0    42.7
 324   23:50   39.4    33    4.5   235      6.2   847.3    0.00       0    42.6
 325    0:00   39.0    33    1.7   237      4.7   847.1    0.00       0    42.6
 325    0:10   39.0    33    3.0   139      5.8   847.0    0.00       0    42.4
 325    0:20   40.1    32    2.9   237      5.3   847.2    0.00       0    42.4
 325    0:30   39.6    32    3.0     2      4.4   847.0    0.00       0    42.3
 325    0:40   38.8    33    4.5    69      6.6   846.8    0.00       0    42.3
 325    0:50   40.2    32    7.2   168     15.4   846.9    0.00       0    42.2
 325    1:00   42.1    31    4.7   248      9.9   847.2    0.00       0    42.3
 325    1:10   41.2    32    3.6   270      9.6   847.1    0.00       0    42.3
 325    1:20   40.2    32    1.1   354      4.4   846.9    0.00       0    42.3
 325    1:30   39.2    34    5.2    82      6.7   846.8    0.00       0    42.2
 325    1:40   39.8    33    5.8   119      8.7   846.7    0.00       0    42.1
 325    1:50   39.9    33    3.3   152      6.0   846.7    0.00       0    42.0
 325    2:00   39.3    34    4.5   222     10.3   846.9    0.00       0    42.0
 325    2:10   39.0    35    5.4   294     10.2   847.0    0.00       0    42.0
 325    2:20   38.6    36    5.2   308      6.1   847.1    0.00       0    41.9
 325    2:30   38.1    38    4.2   322      5.4   847.0    0.00       0    41.9
 325    2:40   37.8    38    2.2   221      5.5   847.1    0.00       0    41.9
 325    2:50   37.7    38    6.0   185      9.0   847.1    0.00       0    41.7
 325    3:00   37.9    37    3.4   179      4.7   847.1    0.00       0    41.7
 325    3:10   37.8    37    2.4   176      3.4   847.1    0.00       0    41.6
 325    3:20   37.4    38    2.4   175      3.2   847.0    0.00       0    41.5
 325    3:30   36.5    39    3.1   145      5.6   846.9    0.00       0    41.3
 325    3:40   35.1    40    3.2   141      4.0   846.8    0.00       0    41.2
 325    3:50   33.9    41    2.5   140      4.1   846.7    0.00       0    41.0
 325    4:00   33.3    42    3.7   141      4.6   846.9    0.00       0    40.7
 325    4:10   33.6    41    2.3   142      3.2   846.7    0.00       0    40.6
 325    4:20   32.3    42    2.8   142     10.4   846.6    0.00       0    40.6
 325    4:30   35.6    39    7.3   149     11.2   846.5    0.00       0    40.3
 325    4:40   34.7    39    3.3   166      6.3   846.7    0.00       0    40.3
 325    4:50   32.3    42    2.5   285      3.9   846.7    0.00       0    40.2
 325    5:00   31.8    44    2.3   287      3.8   846.6    0.00       0    40.1
 325    5:10   32.2    44    1.6   292      3.2   846.6    0.00       0    39.9
 325    5:20   32.0    44    0.2   279      0.9   846.7    0.00       0    39.7
 325    5:30   30.9    45    0.4   264      1.5   846.7    0.00       0    39.5
 325    5:40   31.8    44    0.5   273      1.9   846.7    0.00       0    39.2
 325    5:50   29.1    46    0.4   312      1.8   846.8    0.00       0    39.0
 325    6:00   27.4    48    0.3   312      1.5   846.8    0.00       0    38.8
 325    6:10   26.7    50    0.3   312      0.9   846.6    0.00       0    38.7
 325    6:20   26.0    51    0.8   312      1.8   846.5    0.00       0    38.4
 325    6:30   26.0    52    1.9   237      3.7   846.6    0.00       2    38.2
 325    6:40   26.4    51    4.8   281      5.9   846.8    0.00       3    38.1
 325    6:50   27.7    53    5.8   281      8.3   846.9    0.00       6    38.1
 325    7:00   27.5    52    2.9   232      4.5   846.9    0.00      14    38.0
 325    7:10   28.2    50    4.1   204      5.7   847.0    0.00      51    38.0
 325    7:20   30.7    46    4.1   207      5.2   847.2    0.00      78    38.4
 325    7:30   31.7    45    5.6   188      6.7   847.5    0.00     102    38.9
 325    7:40   34.3    42    5.8   179      6.9   847.7    0.00     123    39.2
 325    7:50   36.2    39    4.9   169      6.4   848.0    0.00     145    39.5
 325    8:00   38.0    38    4.8   187      6.6   848.3    0.00     166    39.8
 325    8:10   40.1    35    2.5   199      3.8   848.5    0.00     185    40.2
 325    8:20   42.6    32    1.6   214      3.1   848.9    0.00     204    40.6
 325    8:30   43.1    32    0.2   224      1.2   849.3    0.00     222    41.0
 325    8:40   43.5    32    0.1   224      0.8   849.6    0.00     241    41.2
 325    8:50   46.0    29    0.1   223      0.7   849.9    0.00     258    41.5
 325    9:00   48.4    27    0.1   217      0.7   850.2    0.00     275    41.9
 325    9:10   50.5    26    0.1   220      1.2   850.3    0.00     289    42.1
 325    9:20   49.1    28    0.8   138      2.6   850.5    0.00     304    42.5
 325    9:30   50.1    28    0.5   136      1.9   850.8    0.00     318    42.8
 325    9:40   50.9    28    0.3    93      1.5   850.7    0.00     332    43.1

Return to St. George, Utah graphs page.


Western Regional Climate Center,wrcc@dri.edu